sensor_id;sensor_type;location;lat;lon;timestamp;P1;durP1;ratioP1;P2;durP2;ratioP2
56343;SDS011;42245;42.058;24.700;2024-01-11T04:47:24;2.73;;;2.20;;
56343;SDS011;42245;42.058;24.700;2024-01-11T04:49:49;3.93;;;2.50;;
56343;SDS011;42245;42.058;24.700;2024-01-11T04:52:15;3.97;;;2.40;;
56343;SDS011;42245;42.058;24.700;2024-01-11T04:54:40;4.67;;;2.43;;
56343;SDS011;42245;42.058;24.700;2024-01-11T04:57:06;3.10;;;2.10;;
56343;SDS011;42245;42.058;24.700;2024-01-11T04:59:31;3.13;;;2.40;;
56343;SDS011;42245;42.058;24.700;2024-01-11T05:01:57;3.83;;;2.80;;
56343;SDS011;42245;42.058;24.700;2024-01-11T05:04:22;4.20;;;2.67;;
56343;SDS011;42245;42.058;24.700;2024-01-11T05:06:48;3.77;;;2.40;;
56343;SDS011;42245;42.058;24.700;2024-01-11T05:09:13;4.13;;;2.37;;
56343;SDS011;42245;42.058;24.700;2024-01-11T05:11:39;3.53;;;2.17;;
56343;SDS011;42245;42.058;24.700;2024-01-11T05:14:05;3.03;;;2.20;;
56343;SDS011;42245;42.058;24.700;2024-01-11T05:16:30;3.00;;;2.20;;
56343;SDS011;42245;42.058;24.700;2024-01-11T05:18:56;4.57;;;2.50;;
56343;SDS011;42245;42.058;24.700;2024-01-11T05:21:22;4.67;;;2.20;;
56343;SDS011;42245;42.058;24.700;2024-01-11T05:23:48;2.60;;;1.70;;
56343;SDS011;42245;42.058;24.700;2024-01-11T05:26:14;2.97;;;1.70;;
56343;SDS011;42245;42.058;24.700;2024-01-11T05:28:40;2.57;;;1.80;;
56343;SDS011;42245;42.058;24.700;2024-01-11T05:31:09;2.40;;;1.73;;
56343;SDS011;42245;42.058;24.700;2024-01-11T05:33:36;3.17;;;1.90;;
56343;SDS011;42245;42.058;24.700;2024-01-11T05:36:02;5.57;;;2.10;;
56343;SDS011;42245;42.058;24.700;2024-01-11T05:38:28;2.67;;;2.10;;
56343;SDS011;42245;42.058;24.700;2024-01-11T05:40:53;7.63;;;2.70;;
56343;SDS011;42245;42.058;24.700;2024-01-11T05:43:18;3.73;;;2.37;;
56343;SDS011;42245;42.058;24.700;2024-01-11T05:45:44;2.97;;;1.87;;
56343;SDS011;42245;42.058;24.700;2024-01-11T05:48:10;2.00;;;1.73;;
56343;SDS011;42245;42.058;24.700;2024-01-11T05:50:36;2.33;;;1.90;;
56343;SDS011;42245;42.058;24.700;2024-01-11T05:53:01;2.07;;;1.80;;
56343;SDS011;42245;42.058;24.700;2024-01-11T05:55:27;1.90;;;1.70;;
56343;SDS011;42245;42.058;24.700;2024-01-11T05:57:53;3.60;;;1.60;;
56343;SDS011;42245;42.058;24.700;2024-01-11T06:00:18;1.80;;;1.50;;
56343;SDS011;42245;42.058;24.700;2024-01-11T06:02:44;5.80;;;4.20;;
56343;SDS011;42245;42.058;24.700;2024-01-11T06:05:09;5.07;;;3.30;;
56343;SDS011;42245;42.058;24.700;2024-01-11T06:07:35;6.57;;;3.60;;
56343;SDS011;42245;42.058;24.700;2024-01-11T06:10:01;5.83;;;3.77;;
56343;SDS011;42245;42.058;24.700;2024-01-11T06:12:28;5.57;;;3.00;;
56343;SDS011;42245;42.058;24.700;2024-01-11T06:14:54;3.87;;;2.40;;
56343;SDS011;42245;42.058;24.700;2024-01-11T06:17:19;5.60;;;3.07;;
56343;SDS011;42245;42.058;24.700;2024-01-11T06:19:45;5.40;;;3.20;;
56343;SDS011;42245;42.058;24.700;2024-01-11T06:22:10;7.30;;;3.00;;
56343;SDS011;42245;42.058;24.700;2024-01-11T06:24:36;5.10;;;3.00;;
56343;SDS011;42245;42.058;24.700;2024-01-11T06:27:01;4.17;;;2.70;;
56343;SDS011;42245;42.058;24.700;2024-01-11T06:29:27;3.70;;;2.57;;
56343;SDS011;42245;42.058;24.700;2024-01-11T06:31:53;4.87;;;2.60;;
56343;SDS011;42245;42.058;24.700;2024-01-11T06:34:19;4.70;;;2.50;;
56343;SDS011;42245;42.058;24.700;2024-01-11T06:36:44;4.87;;;2.80;;
56343;SDS011;42245;42.058;24.700;2024-01-11T06:39:09;3.47;;;1.90;;
56343;SDS011;42245;42.058;24.700;2024-01-11T06:41:35;5.80;;;3.60;;
56343;SDS011;42245;42.058;24.700;2024-01-11T06:44:00;11.80;;;6.30;;
56343;SDS011;42245;42.058;24.700;2024-01-11T06:46:26;9.20;;;5.00;;
56343;SDS011;42245;42.058;24.700;2024-01-11T06:48:52;6.73;;;3.77;;
56343;SDS011;42245;42.058;24.700;2024-01-11T06:51:21;10.13;;;4.10;;
56343;SDS011;42245;42.058;24.700;2024-01-11T06:53:47;5.00;;;3.30;;
56343;SDS011;42245;42.058;24.700;2024-01-11T06:56:15;6.07;;;3.63;;
56343;SDS011;42245;42.058;24.700;2024-01-11T06:58:42;7.93;;;3.97;;
56343;SDS011;42245;42.058;24.700;2024-01-11T07:01:08;9.37;;;5.23;;
56343;SDS011;42245;42.058;24.700;2024-01-11T07:03:33;12.70;;;6.47;;
56343;SDS011;42245;42.058;24.700;2024-01-11T07:05:59;14.50;;;6.37;;
56343;SDS011;42245;42.058;24.700;2024-01-11T07:08:24;13.03;;;5.37;;
56343;SDS011;42245;42.058;24.700;2024-01-11T07:10:49;9.67;;;4.97;;
56343;SDS011;42245;42.058;24.700;2024-01-11T07:13:15;12.10;;;5.57;;
56343;SDS011;42245;42.058;24.700;2024-01-11T07:15:42;9.20;;;5.23;;
56343;SDS011;42245;42.058;24.700;2024-01-11T07:18:08;11.27;;;5.73;;
56343;SDS011;42245;42.058;24.700;2024-01-11T07:20:33;9.37;;;5.07;;
56343;SDS011;42245;42.058;24.700;2024-01-11T07:22:59;7.43;;;4.40;;
56343;SDS011;42245;42.058;24.700;2024-01-11T07:25:25;6.17;;;3.90;;
56343;SDS011;42245;42.058;24.700;2024-01-11T07:27:50;11.60;;;6.43;;
56343;SDS011;42245;42.058;24.700;2024-01-11T07:30:17;18.63;;;9.47;;
56343;SDS011;42245;42.058;24.700;2024-01-11T07:32:44;37.47;;;14.60;;
56343;SDS011;42245;42.058;24.700;2024-01-11T07:35:09;44.67;;;17.80;;
56343;SDS011;42245;42.058;24.700;2024-01-11T07:37:36;38.47;;;16.07;;
56343;SDS011;42245;42.058;24.700;2024-01-11T07:40:02;44.03;;;17.13;;
56343;SDS011;42245;42.058;24.700;2024-01-11T07:42:28;37.97;;;15.73;;
56343;SDS011;42245;42.058;24.700;2024-01-11T07:44:54;33.53;;;14.97;;
56343;SDS011;42245;42.058;24.700;2024-01-11T07:47:20;29.13;;;13.53;;
56343;SDS011;42245;42.058;24.700;2024-01-11T07:49:45;24.37;;;11.17;;
56343;SDS011;42245;42.058;24.700;2024-01-11T07:52:11;24.00;;;10.40;;
56343;SDS011;42245;42.058;24.700;2024-01-11T07:54:36;19.00;;;9.70;;
56343;SDS011;42245;42.058;24.700;2024-01-11T07:57:03;26.50;;;12.23;;
56343;SDS011;42245;42.058;24.700;2024-01-11T07:59:35;41.03;;;19.97;;
56343;SDS011;42245;42.058;24.700;2024-01-11T08:02:01;32.83;;;15.67;;
56343;SDS011;42245;42.058;24.700;2024-01-11T08:04:27;29.90;;;15.90;;
56343;SDS011;42245;42.058;24.700;2024-01-11T08:06:52;29.50;;;15.50;;
56343;SDS011;42245;42.058;24.700;2024-01-11T08:09:18;25.13;;;13.60;;
56343;SDS011;42245;42.058;24.700;2024-01-11T08:11:43;28.50;;;14.83;;
56343;SDS011;42245;42.058;24.700;2024-01-11T08:14:09;31.87;;;17.43;;
56343;SDS011;42245;42.058;24.700;2024-01-11T08:16:34;30.20;;;16.93;;
56343;SDS011;42245;42.058;24.700;2024-01-11T08:19:00;25.70;;;13.97;;
56343;SDS011;42245;42.058;24.700;2024-01-11T08:21:28;26.07;;;15.37;;
56343;SDS011;42245;42.058;24.700;2024-01-11T08:23:54;29.93;;;16.80;;
56343;SDS011;42245;42.058;24.700;2024-01-11T08:26:20;27.93;;;16.40;;
56343;SDS011;42245;42.058;24.700;2024-01-11T08:28:47;30.73;;;16.97;;
56343;SDS011;42245;42.058;24.700;2024-01-11T08:31:12;28.77;;;16.57;;
56343;SDS011;42245;42.058;24.700;2024-01-11T08:33:38;30.10;;;18.13;;
56343;SDS011;42245;42.058;24.700;2024-01-11T08:36:04;54.77;;;28.07;;
56343;SDS011;42245;42.058;24.700;2024-01-11T08:38:30;30.30;;;18.03;;
56343;SDS011;42245;42.058;24.700;2024-01-11T08:40:55;24.73;;;15.43;;
56343;SDS011;42245;42.058;24.700;2024-01-11T08:43:21;23.50;;;15.37;;
56343;SDS011;42245;42.058;24.700;2024-01-11T08:45:46;24.33;;;15.63;;
56343;SDS011;42245;42.058;24.700;2024-01-11T08:48:12;31.23;;;18.87;;
56343;SDS011;42245;42.058;24.700;2024-01-11T08:50:38;22.95;;;14.10;;
56343;SDS011;42245;42.058;24.700;2024-01-11T08:53:04;35.13;;;20.45;;
56343;SDS011;42245;42.058;24.700;2024-01-11T08:55:29;30.98;;;20.48;;
56343;SDS011;42245;42.058;24.700;2024-01-11T08:57:54;23.48;;;14.65;;
56343;SDS011;42245;42.058;24.700;2024-01-11T09:00:20;20.58;;;13.65;;
56343;SDS011;42245;42.058;24.700;2024-01-11T09:02:45;19.08;;;13.23;;
56343;SDS011;42245;42.058;24.700;2024-01-11T09:05:11;34.65;;;21.60;;
56343;SDS011;42245;42.058;24.700;2024-01-11T09:07:38;22.23;;;14.93;;
56343;SDS011;42245;42.058;24.700;2024-01-11T09:10:04;24.85;;;16.90;;
56343;SDS011;42245;42.058;24.700;2024-01-11T09:12:30;29.25;;;18.42;;
56343;SDS011;42245;42.058;24.700;2024-01-11T09:14:55;36.42;;;24.17;;
56343;SDS011;42245;42.058;24.700;2024-01-11T09:17:20;28.95;;;20.05;;
56343;SDS011;42245;42.058;24.700;2024-01-11T09:19:46;26.30;;;18.50;;
56343;SDS011;42245;42.058;24.700;2024-01-11T09:22:12;29.25;;;16.83;;
56343;SDS011;42245;42.058;24.700;2024-01-11T09:24:37;25.50;;;18.60;;
56343;SDS011;42245;42.058;24.700;2024-01-11T09:27:03;27.20;;;17.85;;
56343;SDS011;42245;42.058;24.700;2024-01-11T09:29:29;26.50;;;18.52;;
56343;SDS011;42245;42.058;24.700;2024-01-11T09:31:55;33.95;;;21.63;;
56343;SDS011;42245;42.058;24.700;2024-01-11T09:34:20;24.50;;;16.85;;
56343;SDS011;42245;42.058;24.700;2024-01-11T09:36:46;27.38;;;14.85;;
56343;SDS011;42245;42.058;24.700;2024-01-11T09:39:11;26.13;;;15.68;;
56343;SDS011;42245;42.058;24.700;2024-01-11T09:41:38;19.15;;;13.32;;
56343;SDS011;42245;42.058;24.700;2024-01-11T09:44:08;29.58;;;18.27;;
56343;SDS011;42245;42.058;24.700;2024-01-11T09:46:34;25.83;;;16.58;;
56343;SDS011;42245;42.058;24.700;2024-01-11T09:48:59;34.60;;;22.30;;
56343;SDS011;42245;42.058;24.700;2024-01-11T09:51:25;25.15;;;15.95;;
56343;SDS011;42245;42.058;24.700;2024-01-11T09:53:51;20.85;;;13.70;;
56343;SDS011;42245;42.058;24.700;2024-01-11T09:56:19;24.20;;;15.15;;
56343;SDS011;42245;42.058;24.700;2024-01-11T09:58:46;18.75;;;13.35;;
56343;SDS011;42245;42.058;24.700;2024-01-11T10:01:15;18.85;;;12.85;;
56343;SDS011;42245;42.058;24.700;2024-01-11T10:03:41;21.38;;;14.52;;
56343;SDS011;42245;42.058;24.700;2024-01-11T10:06:07;23.42;;;15.15;;
56343;SDS011;42245;42.058;24.700;2024-01-11T10:08:34;28.13;;;19.13;;
56343;SDS011;42245;42.058;24.700;2024-01-11T10:11:00;23.35;;;16.50;;
56343;SDS011;42245;42.058;24.700;2024-01-11T10:13:29;25.92;;;17.25;;
56343;SDS011;42245;42.058;24.700;2024-01-11T10:16:08;22.80;;;16.05;;
56343;SDS011;42245;42.058;24.700;2024-01-11T10:18:35;27.95;;;18.02;;
56343;SDS011;42245;42.058;24.700;2024-01-11T10:21:01;25.02;;;16.65;;
56343;SDS011;42245;42.058;24.700;2024-01-11T10:23:27;25.98;;;16.88;;
56343;SDS011;42245;42.058;24.700;2024-01-11T10:25:55;30.02;;;19.08;;
56343;SDS011;42245;42.058;24.700;2024-01-11T10:28:22;24.63;;;17.48;;
56343;SDS011;42245;42.058;24.700;2024-01-11T10:30:48;23.27;;;16.63;;
56343;SDS011;42245;42.058;24.700;2024-01-11T10:33:17;26.08;;;17.00;;
56343;SDS011;42245;42.058;24.700;2024-01-11T10:35:45;27.85;;;17.73;;
56343;SDS011;42245;42.058;24.700;2024-01-11T10:38:10;28.20;;;18.52;;
56343;SDS011;42245;42.058;24.700;2024-01-11T10:40:36;24.77;;;16.95;;
56343;SDS011;42245;42.058;24.700;2024-01-11T10:43:02;24.40;;;16.75;;
56343;SDS011;42245;42.058;24.700;2024-01-11T10:45:28;23.17;;;15.70;;
56343;SDS011;42245;42.058;24.700;2024-01-11T10:48:00;22.63;;;16.33;;
56343;SDS011;42245;42.058;24.700;2024-01-11T10:50:26;22.25;;;15.82;;
56343;SDS011;42245;42.058;24.700;2024-01-11T10:55:39;26.55;;;17.58;;
56343;SDS011;42245;42.058;24.700;2024-01-11T10:58:07;25.65;;;17.15;;
56343;SDS011;42245;42.058;24.700;2024-01-11T11:00:33;34.22;;;22.48;;
56343;SDS011;42245;42.058;24.700;2024-01-11T11:03:00;30.98;;;18.10;;
56343;SDS011;42245;42.058;24.700;2024-01-11T11:05:27;26.98;;;17.10;;
56343;SDS011;42245;42.058;24.700;2024-01-11T11:07:54;25.73;;;17.05;;
56343;SDS011;42245;42.058;24.700;2024-01-11T11:10:21;32.97;;;18.73;;
56343;SDS011;42245;42.058;24.700;2024-01-11T11:12:47;35.05;;;21.40;;
56343;SDS011;42245;42.058;24.700;2024-01-11T11:15:14;34.20;;;18.58;;
56343;SDS011;42245;42.058;24.700;2024-01-11T11:17:40;29.85;;;20.27;;
56343;SDS011;42245;42.058;24.700;2024-01-11T11:20:06;27.15;;;17.25;;
56343;SDS011;42245;42.058;24.700;2024-01-11T11:22:37;27.98;;;17.05;;
56343;SDS011;42245;42.058;24.700;2024-01-11T11:25:03;23.00;;;15.80;;
56343;SDS011;42245;42.058;24.700;2024-01-11T11:27:33;25.48;;;15.13;;
56343;SDS011;42245;42.058;24.700;2024-01-11T11:29:58;25.10;;;16.35;;
56343;SDS011;42245;42.058;24.700;2024-01-11T11:32:36;22.77;;;15.77;;
56343;SDS011;42245;42.058;24.700;2024-01-11T11:35:03;26.15;;;16.80;;
56343;SDS011;42245;42.058;24.700;2024-01-11T11:37:29;30.75;;;19.17;;
56343;SDS011;42245;42.058;24.700;2024-01-11T11:39:57;26.23;;;16.27;;
56343;SDS011;42245;42.058;24.700;2024-01-11T11:42:23;32.88;;;17.90;;
56343;SDS011;42245;42.058;24.700;2024-01-11T11:44:50;24.40;;;15.95;;
56343;SDS011;42245;42.058;24.700;2024-01-11T11:47:22;20.95;;;14.70;;
56343;SDS011;42245;42.058;24.700;2024-01-11T11:49:57;20.63;;;14.55;;
56343;SDS011;42245;42.058;24.700;2024-01-11T11:52:26;22.35;;;14.77;;
56343;SDS011;42245;42.058;24.700;2024-01-11T11:54:51;24.80;;;15.73;;
56343;SDS011;42245;42.058;24.700;2024-01-11T11:57:17;25.05;;;16.50;;
56343;SDS011;42245;42.058;24.700;2024-01-11T11:59:43;26.35;;;17.08;;
56343;SDS011;42245;42.058;24.700;2024-01-11T12:02:08;25.88;;;14.73;;
56343;SDS011;42245;42.058;24.700;2024-01-11T12:04:39;19.33;;;13.80;;
56343;SDS011;42245;42.058;24.700;2024-01-11T12:07:04;21.02;;;14.23;;
56343;SDS011;42245;42.058;24.700;2024-01-11T12:09:30;22.85;;;13.65;;
56343;SDS011;42245;42.058;24.700;2024-01-11T12:11:55;19.75;;;13.27;;
56343;SDS011;42245;42.058;24.700;2024-01-11T12:14:20;27.65;;;15.52;;
56343;SDS011;42245;42.058;24.700;2024-01-11T12:16:55;20.38;;;13.65;;
56343;SDS011;42245;42.058;24.700;2024-01-11T12:19:22;19.98;;;13.30;;
56343;SDS011;42245;42.058;24.700;2024-01-11T12:21:49;20.13;;;12.95;;
56343;SDS011;42245;42.058;24.700;2024-01-11T12:24:15;18.38;;;12.95;;
56343;SDS011;42245;42.058;24.700;2024-01-11T12:26:42;23.08;;;15.15;;
56343;SDS011;42245;42.058;24.700;2024-01-11T12:29:08;21.80;;;14.13;;
56343;SDS011;42245;42.058;24.700;2024-01-11T12:31:34;28.90;;;16.45;;
56343;SDS011;42245;42.058;24.700;2024-01-11T12:34:00;25.90;;;15.38;;
56343;SDS011;42245;42.058;24.700;2024-01-11T12:36:27;35.47;;;19.80;;
56343;SDS011;42245;42.058;24.700;2024-01-11T12:38:53;30.67;;;21.40;;
56343;SDS011;42245;42.058;24.700;2024-01-11T12:41:19;32.33;;;22.15;;
56343;SDS011;42245;42.058;24.700;2024-01-11T12:43:46;30.42;;;17.63;;
56343;SDS011;42245;42.058;24.700;2024-01-11T12:46:14;24.27;;;16.02;;
56343;SDS011;42245;42.058;24.700;2024-01-11T12:48:41;24.52;;;16.02;;
56343;SDS011;42245;42.058;24.700;2024-01-11T12:51:06;26.88;;;15.93;;
56343;SDS011;42245;42.058;24.700;2024-01-11T12:53:32;26.73;;;16.02;;
56343;SDS011;42245;42.058;24.700;2024-01-11T12:56:04;25.40;;;16.65;;
56343;SDS011;42245;42.058;24.700;2024-01-11T12:58:33;28.40;;;16.17;;
56343;SDS011;42245;42.058;24.700;2024-01-11T13:00:59;27.10;;;17.27;;
56343;SDS011;42245;42.058;24.700;2024-01-11T13:03:25;29.55;;;19.27;;
56343;SDS011;42245;42.058;24.700;2024-01-11T13:05:52;34.38;;;20.13;;
56343;SDS011;42245;42.058;24.700;2024-01-11T13:08:17;39.30;;;22.50;;
56343;SDS011;42245;42.058;24.700;2024-01-11T13:10:43;33.65;;;18.35;;
56343;SDS011;42245;42.058;24.700;2024-01-11T13:13:08;31.40;;;18.48;;
56343;SDS011;42245;42.058;24.700;2024-01-11T13:15:34;34.65;;;19.77;;
56343;SDS011;42245;42.058;24.700;2024-01-11T13:18:01;32.25;;;18.83;;
56343;SDS011;42245;42.058;24.700;2024-01-11T13:20:27;30.67;;;18.58;;
56343;SDS011;42245;42.058;24.700;2024-01-11T13:23:18;30.50;;;17.75;;
56343;SDS011;42245;42.058;24.700;2024-01-11T13:25:45;28.10;;;17.92;;
56343;SDS011;42245;42.058;24.700;2024-01-11T13:28:11;29.27;;;18.45;;
56343;SDS011;42245;42.058;24.700;2024-01-11T13:30:41;28.63;;;18.10;;
56343;SDS011;42245;42.058;24.700;2024-01-11T13:33:07;33.53;;;19.25;;
56343;SDS011;42245;42.058;24.700;2024-01-11T13:35:37;30.63;;;18.58;;
56343;SDS011;42245;42.058;24.700;2024-01-11T13:38:03;30.73;;;18.92;;
56343;SDS011;42245;42.058;24.700;2024-01-11T13:40:33;32.50;;;18.10;;
56343;SDS011;42245;42.058;24.700;2024-01-11T13:42:59;35.83;;;19.17;;
56343;SDS011;42245;42.058;24.700;2024-01-11T13:45:25;29.50;;;17.77;;
56343;SDS011;42245;42.058;24.700;2024-01-11T13:47:54;29.88;;;17.13;;
56343;SDS011;42245;42.058;24.700;2024-01-11T13:50:20;29.65;;;17.20;;
56343;SDS011;42245;42.058;24.700;2024-01-11T13:52:46;28.53;;;16.97;;
56343;SDS011;42245;42.058;24.700;2024-01-11T13:55:12;25.63;;;16.37;;
56343;SDS011;42245;42.058;24.700;2024-01-11T13:57:38;28.57;;;16.50;;
56343;SDS011;42245;42.058;24.700;2024-01-11T14:00:05;29.40;;;16.90;;
56343;SDS011;42245;42.058;24.700;2024-01-11T14:02:32;34.10;;;16.77;;
56343;SDS011;42245;42.058;24.700;2024-01-11T14:04:59;29.43;;;16.07;;
56343;SDS011;42245;42.058;24.700;2024-01-11T14:07:24;28.27;;;15.77;;
56343;SDS011;42245;42.058;24.700;2024-01-11T14:09:50;30.07;;;15.30;;
56343;SDS011;42245;42.058;24.700;2024-01-11T14:12:16;28.97;;;15.33;;
56343;SDS011;42245;42.058;24.700;2024-01-11T14:14:42;28.03;;;15.10;;
56343;SDS011;42245;42.058;24.700;2024-01-11T14:17:08;27.47;;;14.00;;
56343;SDS011;42245;42.058;24.700;2024-01-11T14:19:34;25.07;;;13.33;;
56343;SDS011;42245;42.058;24.700;2024-01-11T14:21:59;21.87;;;12.13;;
56343;SDS011;42245;42.058;24.700;2024-01-11T14:24:25;24.23;;;13.23;;
56343;SDS011;42245;42.058;24.700;2024-01-11T14:26:51;21.50;;;13.00;;
56343;SDS011;42245;42.058;24.700;2024-01-11T14:29:17;20.37;;;12.17;;
56343;SDS011;42245;42.058;24.700;2024-01-11T14:31:42;22.60;;;12.67;;
56343;SDS011;42245;42.058;24.700;2024-01-11T14:34:09;24.97;;;12.80;;
56343;SDS011;42245;42.058;24.700;2024-01-11T14:36:35;16.80;;;10.30;;
56343;SDS011;42245;42.058;24.700;2024-01-11T14:39:01;21.83;;;10.67;;
56343;SDS011;42245;42.058;24.700;2024-01-11T14:41:29;13.97;;;7.63;;
56343;SDS011;42245;42.058;24.700;2024-01-11T14:43:57;13.33;;;7.57;;
56343;SDS011;42245;42.058;24.700;2024-01-11T14:46:26;10.73;;;6.90;;
56343;SDS011;42245;42.058;24.700;2024-01-11T14:48:52;10.07;;;5.70;;
56343;SDS011;42245;42.058;24.700;2024-01-11T14:51:17;9.40;;;4.60;;
56343;SDS011;42245;42.058;24.700;2024-01-11T14:53:42;4.93;;;3.53;;
56343;SDS011;42245;42.058;24.700;2024-01-11T14:56:08;6.73;;;3.93;;
56343;SDS011;42245;42.058;24.700;2024-01-11T14:58:33;7.70;;;3.57;;
56343;SDS011;42245;42.058;24.700;2024-01-11T15:00:59;5.77;;;3.57;;
56343;SDS011;42245;42.058;24.700;2024-01-11T15:03:24;6.03;;;3.63;;
56343;SDS011;42245;42.058;24.700;2024-01-11T15:05:51;3.70;;;2.83;;
56343;SDS011;42245;42.058;24.700;2024-01-11T15:08:17;4.43;;;2.83;;
56343;SDS011;42245;42.058;24.700;2024-01-11T15:10:43;4.70;;;2.77;;
56343;SDS011;42245;42.058;24.700;2024-01-11T15:13:09;4.70;;;3.17;;
56343;SDS011;42245;42.058;24.700;2024-01-11T15:15:36;4.30;;;3.58;;
56343;SDS011;42245;42.058;24.700;2024-01-11T15:18:01;4.83;;;3.20;;
56343;SDS011;42245;42.058;24.700;2024-01-11T15:20:27;4.30;;;3.10;;
56343;SDS011;42245;42.058;24.700;2024-01-11T15:22:52;4.13;;;3.10;;
56343;SDS011;42245;42.058;24.700;2024-01-11T15:25:18;6.13;;;3.40;;
56343;SDS011;42245;42.058;24.700;2024-01-11T15:27:44;7.73;;;3.57;;
56343;SDS011;42245;42.058;24.700;2024-01-11T15:30:09;3.97;;;2.93;;
56343;SDS011;42245;42.058;24.700;2024-01-11T15:32:36;4.93;;;3.40;;
56343;SDS011;42245;42.058;24.700;2024-01-11T15:35:02;5.30;;;3.50;;
56343;SDS011;42245;42.058;24.700;2024-01-11T15:37:28;5.47;;;3.20;;
56343;SDS011;42245;42.058;24.700;2024-01-11T15:39:57;4.23;;;3.30;;
56343;SDS011;42245;42.058;24.700;2024-01-11T15:42:22;5.00;;;3.50;;
56343;SDS011;42245;42.058;24.700;2024-01-11T15:44:49;5.50;;;3.50;;
56343;SDS011;42245;42.058;24.700;2024-01-11T15:47:15;7.60;;;3.90;;
56343;SDS011;42245;42.058;24.700;2024-01-11T15:49:40;5.33;;;3.60;;
56343;SDS011;42245;42.058;24.700;2024-01-11T15:52:06;6.80;;;3.63;;
56343;SDS011;42245;42.058;24.700;2024-01-11T15:54:31;4.57;;;3.30;;
56343;SDS011;42245;42.058;24.700;2024-01-11T15:56:57;5.67;;;3.60;;
56343;SDS011;42245;42.058;24.700;2024-01-11T15:59:24;5.53;;;3.60;;
56343;SDS011;42245;42.058;24.700;2024-01-11T16:01:50;5.00;;;3.57;;
56343;SDS011;42245;42.058;24.700;2024-01-11T16:04:17;6.40;;;4.00;;
56343;SDS011;42245;42.058;24.700;2024-01-11T16:06:42;5.50;;;3.70;;
56343;SDS011;42245;42.058;24.700;2024-01-11T16:09:08;5.40;;;3.70;;
56343;SDS011;42245;42.058;24.700;2024-01-11T16:11:34;6.80;;;4.07;;
56343;SDS011;42245;42.058;24.700;2024-01-11T16:14:00;5.20;;;3.70;;
56343;SDS011;42245;42.058;24.700;2024-01-11T16:16:25;5.90;;;3.37;;
56343;SDS011;42245;42.058;24.700;2024-01-11T16:18:51;6.17;;;3.63;;
56343;SDS011;42245;42.058;24.700;2024-01-11T16:21:16;6.33;;;3.97;;
56343;SDS011;42245;42.058;24.700;2024-01-11T16:23:42;5.00;;;3.60;;
56343;SDS011;42245;42.058;24.700;2024-01-11T16:26:07;6.40;;;4.27;;
56343;SDS011;42245;42.058;24.700;2024-01-11T16:28:35;6.10;;;3.73;;
56343;SDS011;42245;42.058;24.700;2024-01-11T16:31:02;5.40;;;3.63;;
56343;SDS011;42245;42.058;24.700;2024-01-11T16:33:28;5.87;;;3.73;;
56343;SDS011;42245;42.058;24.700;2024-01-11T16:35:54;5.07;;;3.93;;
56343;SDS011;42245;42.058;24.700;2024-01-11T16:38:21;5.57;;;3.70;;
56343;SDS011;42245;42.058;24.700;2024-01-11T16:40:46;16.33;;;4.60;;
56343;SDS011;42245;42.058;24.700;2024-01-11T16:43:12;6.40;;;4.20;;
56343;SDS011;42245;42.058;24.700;2024-01-11T16:45:39;5.20;;;3.73;;
56343;SDS011;42245;42.058;24.700;2024-01-11T16:48:04;5.50;;;3.90;;
56343;SDS011;42245;42.058;24.700;2024-01-11T16:50:35;6.43;;;4.43;;
56343;SDS011;42245;42.058;24.700;2024-01-11T16:53:03;5.63;;;4.00;;
56343;SDS011;42245;42.058;24.700;2024-01-11T16:55:29;6.87;;;4.27;;
56343;SDS011;42245;42.058;24.700;2024-01-11T16:57:54;6.60;;;4.37;;
56343;SDS011;42245;42.058;24.700;2024-01-11T17:00:21;7.33;;;4.00;;
56343;SDS011;42245;42.058;24.700;2024-01-11T17:02:46;6.20;;;4.03;;
56343;SDS011;42245;42.058;24.700;2024-01-11T17:05:12;7.00;;;4.43;;
56343;SDS011;42245;42.058;24.700;2024-01-11T17:07:37;7.33;;;5.33;;
56343;SDS011;42245;42.058;24.700;2024-01-11T17:10:04;5.80;;;3.90;;
56343;SDS011;42245;42.058;24.700;2024-01-11T17:12:30;8.27;;;4.30;;
56343;SDS011;42245;42.058;24.700;2024-01-11T17:14:55;5.87;;;3.83;;
56343;SDS011;42245;42.058;24.700;2024-01-11T17:17:21;5.93;;;3.70;;
56343;SDS011;42245;42.058;24.700;2024-01-11T17:19:46;6.33;;;4.20;;
56343;SDS011;42245;42.058;24.700;2024-01-11T17:22:12;6.50;;;3.87;;
56343;SDS011;42245;42.058;24.700;2024-01-11T17:24:37;5.13;;;3.60;;
56343;SDS011;42245;42.058;24.700;2024-01-11T17:27:02;5.37;;;3.50;;
56343;SDS011;42245;42.058;24.700;2024-01-11T17:29:36;6.23;;;3.80;;
56343;SDS011;42245;42.058;24.700;2024-01-11T17:32:03;5.43;;;3.73;;
56343;SDS011;42245;42.058;24.700;2024-01-11T17:34:28;4.83;;;3.10;;
56343;SDS011;42245;42.058;24.700;2024-01-11T17:36:54;6.07;;;3.67;;
56343;SDS011;42245;42.058;24.700;2024-01-11T17:39:20;4.07;;;3.10;;
56343;SDS011;42245;42.058;24.700;2024-01-11T17:41:48;5.43;;;3.60;;
56343;SDS011;42245;42.058;24.700;2024-01-11T17:44:14;6.53;;;3.13;;
56343;SDS011;42245;42.058;24.700;2024-01-11T17:46:39;5.33;;;3.43;;
56343;SDS011;42245;42.058;24.700;2024-01-11T17:49:06;5.27;;;3.83;;
56343;SDS011;42245;42.058;24.700;2024-01-11T17:51:33;7.10;;;3.50;;
56343;SDS011;42245;42.058;24.700;2024-01-11T17:53:58;4.43;;;3.13;;
56343;SDS011;42245;42.058;24.700;2024-01-11T17:56:24;5.33;;;3.67;;
56343;SDS011;42245;42.058;24.700;2024-01-11T17:58:49;4.77;;;3.30;;
56343;SDS011;42245;42.058;24.700;2024-01-11T18:01:18;6.10;;;3.87;;
56343;SDS011;42245;42.058;24.700;2024-01-11T18:03:45;9.03;;;5.60;;
56343;SDS011;42245;42.058;24.700;2024-01-11T18:06:13;4.90;;;3.50;;
56343;SDS011;42245;42.058;24.700;2024-01-11T18:08:38;4.23;;;3.10;;
56343;SDS011;42245;42.058;24.700;2024-01-11T18:11:04;7.27;;;3.77;;
56343;SDS011;42245;42.058;24.700;2024-01-11T18:13:29;7.77;;;4.13;;
56343;SDS011;42245;42.058;24.700;2024-01-11T18:15:55;7.53;;;4.57;;
56343;SDS011;42245;42.058;24.700;2024-01-11T18:18:20;9.30;;;5.60;;
56343;SDS011;42245;42.058;24.700;2024-01-11T18:20:46;7.83;;;5.17;;
56343;SDS011;42245;42.058;24.700;2024-01-11T18:23:14;6.13;;;4.03;;
56343;SDS011;42245;42.058;24.700;2024-01-11T18:25:40;6.20;;;3.83;;
56343;SDS011;42245;42.058;24.700;2024-01-11T18:28:06;7.80;;;4.60;;
56343;SDS011;42245;42.058;24.700;2024-01-11T18:30:31;7.33;;;5.00;;
56343;SDS011;42245;42.058;24.700;2024-01-11T18:32:56;7.23;;;4.13;;
56343;SDS011;42245;42.058;24.700;2024-01-11T18:35:22;8.57;;;5.30;;
56343;SDS011;42245;42.058;24.700;2024-01-11T18:37:47;8.67;;;5.33;;
56343;SDS011;42245;42.058;24.700;2024-01-11T18:40:13;8.13;;;5.30;;
56343;SDS011;42245;42.058;24.700;2024-01-11T18:42:39;8.57;;;5.30;;
56343;SDS011;42245;42.058;24.700;2024-01-11T18:45:04;9.63;;;5.97;;
56343;SDS011;42245;42.058;24.700;2024-01-11T18:47:30;9.93;;;5.87;;
56343;SDS011;42245;42.058;24.700;2024-01-11T18:49:56;11.30;;;6.27;;
56343;SDS011;42245;42.058;24.700;2024-01-11T18:52:22;10.13;;;6.10;;
56343;SDS011;42245;42.058;24.700;2024-01-11T18:54:48;11.87;;;5.90;;
56343;SDS011;42245;42.058;24.700;2024-01-11T18:57:14;9.00;;;5.83;;
56343;SDS011;42245;42.058;24.700;2024-01-11T18:59:41;10.90;;;6.10;;
56343;SDS011;42245;42.058;24.700;2024-01-11T19:02:06;11.93;;;6.00;;
56343;SDS011;42245;42.058;24.700;2024-01-11T19:04:32;10.97;;;6.13;;